Time;durP1;ratioP1;P1;durP2;ratioP2;P2;SDS_P1;SDS_P2;PMS_P1;PMS_P2;Temp;Humidity;BMP_temperature;BMP_pressure;BME280_temperature;BME280_humidity;BME280_pressure;Samples;Min_cycle;Max_cycle;Signal;HPM_P1;HPM_P2
2021/06/14 00:00:30;;;;;;;9.83;4.77;;;16.50;99.90;;;;;;5131926;27;20576;-75
2021/06/14 00:02:57;;;;;;;7.40;4.70;;;16.50;99.90;;;;;;5132408;27;20256;-76
2021/06/14 00:05:30;;;;;;;6.13;4.10;;;16.50;99.90;;;;;;5131736;27;20686;-76
2021/06/14 00:07:58;;;;;;;6.57;4.37;;;16.40;99.90;;;;;;5132490;27;20204;-75
2021/06/14 00:10:26;;;;;;;9.50;5.23;;;16.40;99.90;;;;;;5132023;27;20251;-75
2021/06/14 00:12:54;;;;;;;4.47;4.07;;;16.40;99.90;;;;;;5132040;27;20229;-75
2021/06/14 00:15:22;;;;;;;8.20;4.10;;;16.40;99.90;;;;;;5132284;27;20205;-75
2021/06/14 00:17:49;;;;;;;4.87;4.10;;;16.40;99.90;;;;;;5132118;27;20250;-75
2021/06/14 00:20:18;;;;;;;7.00;4.57;;;16.30;99.90;;;;;;5131868;27;20653;-76
2021/06/14 00:22:46;;;;;;;8.40;4.27;;;16.30;99.90;;;;;;5132009;27;20223;-75
2021/06/14 00:25:16;;;;;;;5.40;4.27;;;16.20;99.90;;;;;;5132174;27;20263;-75
2021/06/14 00:27:43;;;;;;;8.43;4.40;;;16.20;99.90;;;;;;5131957;27;20568;-73
2021/06/14 00:30:12;;;;;;;6.10;3.97;;;16.20;99.90;;;;;;5131809;27;20254;-74
2021/06/14 00:32:39;;;;;;;4.97;4.13;;;16.20;99.90;;;;;;5131843;27;20225;-73
2021/06/14 00:35:07;;;;;;;7.43;4.47;;;16.20;99.90;;;;;;5131721;27;20209;-73
2021/06/14 00:37:34;;;;;;;7.10;4.00;;;16.20;99.90;;;;;;5131616;27;20205;-73
2021/06/14 00:40:01;;;;;;;4.50;3.73;;;16.20;99.90;;;;;;5131722;27;20564;-73
2021/06/14 00:42:27;;;;;;;6.70;4.63;;;16.10;99.90;;;;;;5131601;27;20209;-73
2021/06/14 00:44:54;;;;;;;5.93;3.57;;;16.10;99.90;;;;;;5131203;27;20683;-73
2021/06/14 00:47:22;;;;;;;6.70;4.13;;;16.10;99.90;;;;;;5131483;27;20236;-73
2021/06/14 00:49:49;;;;;;;6.30;4.53;;;16.00;99.90;;;;;;5131338;27;20205;-73
2021/06/14 00:52:15;;;;;;;6.47;4.33;;;16.00;99.90;;;;;;5131205;27;20323;-73
2021/06/14 00:54:42;;;;;;;7.33;4.13;;;15.90;99.90;;;;;;5130981;27;20213;-74
2021/06/14 00:57:09;;;;;;;5.83;4.17;;;15.90;99.90;;;;;;5131495;27;20241;-74
2021/06/14 00:59:36;;;;;;;9.13;4.40;;;15.90;99.90;;;;;;5131007;27;20289;-74
2021/06/14 01:02:02;;;;;;;4.73;3.93;;;15.90;99.90;;;;;;5130088;27;20549;-73
2021/06/14 01:04:30;;;;;;;5.80;4.10;;;15.80;99.90;;;;;;5130548;27;20259;-73
2021/06/14 01:06:57;;;;;;;4.20;3.80;;;15.80;99.90;;;;;;5130939;27;20239;-73
2021/06/14 01:09:24;;;;;;;5.27;3.67;;;15.80;99.90;;;;;;5130600;27;20692;-73
2021/06/14 01:11:56;;;;;;;6.90;4.23;;;15.80;99.90;;;;;;5130728;27;20229;-73
2021/06/14 01:14:30;;;;;;;6.60;4.00;;;15.80;99.90;;;;;;5130547;27;20209;-71
2021/06/14 01:17:11;;;;;;;7.00;3.93;;;15.80;99.90;;;;;;5130968;27;20229;-73
2021/06/14 01:20:05;;;;;;;5.23;4.10;;;15.70;99.90;;;;;;5130374;27;20631;-73
2021/06/14 01:23:13;;;;;;;5.77;4.00;;;15.70;99.90;;;;;;5102239;27;20209;-72
2021/06/14 01:25:49;;;;;;;6.93;3.90;;;15.70;99.90;;;;;;5130513;27;20193;-73
2021/06/14 01:28:18;;;;;;;7.07;4.27;;;15.60;99.90;;;;;;5130291;27;21031;-73
2021/06/14 01:30:45;;;;;;;5.17;3.73;;;15.60;99.90;;;;;;5130562;27;20206;-74
2021/06/14 01:33:15;;;;;;;7.40;4.03;;;15.50;99.90;;;;;;5130280;27;20766;-74
2021/06/14 01:35:46;;;;;;;7.47;3.70;;;15.50;99.90;;;;;;5130354;27;20202;-73
2021/06/14 01:38:14;;;;;;;5.37;4.10;;;15.60;99.90;;;;;;5130610;27;20247;-74
2021/06/14 01:40:41;;;;;;;6.93;3.80;;;15.50;99.90;;;;;;5130107;27;20539;-74
2021/06/14 01:43:10;;;;;;;6.83;4.00;;;15.50;99.90;;;;;;5130465;27;20281;-73
2021/06/14 01:45:44;;;;;;;6.70;4.57;;;15.50;99.90;;;;;;5130059;27;20290;-73
2021/06/14 01:48:12;;;;;;;5.73;3.90;;;15.50;99.90;;;;;;5130127;27;20707;-74
2021/06/14 01:50:40;;;;;;;5.83;4.43;;;15.40;99.90;;;;;;5130072;27;20202;-75
2021/06/14 01:53:07;;;;;;;7.70;3.90;;;15.40;99.90;;;;;;5130148;27;20225;-74
2021/06/14 01:55:35;;;;;;;7.57;4.27;;;15.40;99.90;;;;;;5130106;27;20563;-74
2021/06/14 01:58:03;;;;;;;5.60;3.93;;;15.40;99.90;;;;;;5129891;27;20651;-74
2021/06/14 02:00:30;;;;;;;4.60;4.20;;;15.30;99.90;;;;;;5129900;27;20197;-74
2021/06/14 02:02:59;;;;;;;7.73;4.07;;;15.30;99.90;;;;;;5129934;27;20250;-73
2021/06/14 02:05:31;;;;;;;6.23;4.10;;;15.30;99.90;;;;;;5129693;27;20322;-74
2021/06/14 02:07:58;;;;;;;6.53;3.90;;;15.30;99.90;;;;;;5129919;27;20198;-74
2021/06/14 02:10:26;;;;;;;4.77;3.97;;;15.30;99.90;;;;;;5129701;27;20205;-73
2021/06/14 02:12:54;;;;;;;6.33;4.20;;;15.30;99.90;;;;;;5129452;27;20267;-73
2021/06/14 02:15:22;;;;;;;6.43;4.27;;;15.30;99.90;;;;;;5129610;27;20213;-74
2021/06/14 02:17:53;;;;;;;8.27;4.03;;;15.30;99.90;;;;;;5129720;27;20201;-73
2021/06/14 02:20:21;;;;;;;5.33;3.97;;;15.20;99.90;;;;;;5129380;27;20766;-73
2021/06/14 02:22:48;;;;;;;5.77;4.10;;;15.20;99.90;;;;;;5129652;27;20205;-74
2021/06/14 02:25:15;;;;;;;6.17;4.00;;;15.20;99.90;;;;;;5129634;27;20213;-74
2021/06/14 02:27:42;;;;;;;6.63;4.23;;;15.20;99.90;;;;;;5129496;27;20241;-74
2021/06/14 02:30:12;;;;;;;5.30;4.20;;;15.10;99.90;;;;;;5129512;27;20237;-73
2021/06/14 02:32:39;;;;;;;6.67;4.43;;;15.10;99.90;;;;;;5129035;27;20699;-73
2021/06/14 02:35:08;;;;;;;5.23;3.47;;;15.10;99.90;;;;;;5129282;27;20209;-73
2021/06/14 02:37:37;;;;;;;4.77;4.07;;;15.00;99.90;;;;;;5129262;27;20670;-76
2021/06/14 02:40:07;;;;;;;4.40;4.00;;;15.00;99.90;;;;;;5129503;27;20267;-75
2021/06/14 02:42:34;;;;;;;8.47;3.90;;;15.00;99.90;;;;;;5129123;27;20233;-75
2021/06/14 02:45:01;;;;;;;5.43;4.20;;;15.00;99.90;;;;;;5129573;27;20252;-75
2021/06/14 02:47:28;;;;;;;6.83;3.77;;;15.00;99.90;;;;;;5129414;27;20213;-75
2021/06/14 02:49:57;;;;;;;6.07;4.10;;;15.00;99.90;;;;;;5129317;27;20202;-74
2021/06/14 02:52:26;;;;;;;5.70;3.73;;;14.90;99.90;;;;;;5129321;28;20278;-75
2021/06/14 02:55:00;;;;;;;5.30;4.00;;;14.90;99.90;;;;;;5129163;28;20201;-75
2021/06/14 02:57:28;;;;;;;5.80;4.13;;;14.90;99.90;;;;;;5129181;28;20246;-75
2021/06/14 02:59:56;;;;;;;4.63;3.70;;;14.90;99.90;;;;;;5129150;28;20642;-74
2021/06/14 03:02:24;;;;;;;5.50;4.07;;;14.90;99.90;;;;;;5123006;28;20278;-73
2021/06/14 03:04:51;;;;;;;4.33;3.53;;;14.90;99.90;;;;;;5112115;28;20638;-72
2021/06/14 03:07:22;;;;;;;7.10;4.30;;;14.90;99.90;;;;;;5112716;28;20194;-74
2021/06/14 03:09:49;;;;;;;5.40;4.10;;;14.80;99.90;;;;;;5117231;27;20218;-74
2021/06/14 03:12:18;;;;;;;5.03;3.90;;;14.80;99.90;;;;;;5116004;28;20626;-74
2021/06/14 03:14:46;;;;;;;6.03;4.30;;;14.80;99.90;;;;;;5122446;28;20205;-74
2021/06/14 03:17:14;;;;;;;6.27;4.57;;;14.80;99.90;;;;;;5126581;27;20257;-74
2021/06/14 03:19:42;;;;;;;8.00;4.63;;;14.80;99.90;;;;;;5126147;28;20258;-74
2021/06/14 03:22:10;;;;;;;7.40;4.17;;;14.80;99.90;;;;;;5126591;28;20209;-76
2021/06/14 03:24:38;;;;;;;5.87;4.40;;;14.80;99.90;;;;;;5126624;27;20217;-75
2021/06/14 03:27:05;;;;;;;8.17;4.47;;;14.60;99.90;;;;;;5130705;27;20757;-74
2021/06/14 03:29:35;;;;;;;5.20;4.03;;;14.60;99.90;;;;;;5130541;27;20237;-74
2021/06/14 03:32:04;;;;;;;5.33;3.83;;;14.60;99.90;;;;;;5130577;27;20233;-74
2021/06/14 03:34:32;;;;;;;5.53;3.90;;;14.70;99.90;;;;;;5130623;27;20197;-74
2021/06/14 03:37:00;;;;;;;7.47;4.20;;;14.70;99.90;;;;;;5130635;27;20244;-74
2021/06/14 03:39:27;;;;;;;5.10;4.10;;;14.70;99.90;;;;;;5131391;27;20230;-74
2021/06/14 03:41:54;;;;;;;5.03;4.07;;;14.70;99.90;;;;;;5130612;27;20289;-74
2021/06/14 03:44:22;;;;;;;9.33;4.17;;;14.70;99.90;;;;;;5130277;27;20651;-74
2021/06/14 03:46:50;;;;;;;9.30;4.07;;;14.70;99.90;;;;;;5129831;27;20208;-74
2021/06/14 03:49:17;;;;;;;11.07;4.20;;;14.80;99.90;;;;;;5130265;27;20205;-74
2021/06/14 03:51:44;;;;;;;6.57;3.87;;;14.80;99.90;;;;;;5130238;27;20206;-74
2021/06/14 03:54:11;;;;;;;4.53;3.87;;;14.80;99.90;;;;;;5130145;27;20261;-74
2021/06/14 03:56:39;;;;;;;6.90;3.87;;;14.70;99.90;;;;;;5129896;27;20205;-74
2021/06/14 03:59:06;;;;;;;4.87;3.80;;;14.70;99.90;;;;;;5126301;27;20258;-73
2021/06/14 04:01:34;;;;;;;6.13;3.87;;;14.80;99.90;;;;;;5124456;27;20270;-73
2021/06/14 04:04:14;;;;;;;7.27;3.70;;;14.80;99.90;;;;;;5115253;27;20259;-74
2021/06/14 04:06:41;;;;;;;4.40;3.53;;;14.90;99.90;;;;;;5110313;28;20637;-73
2021/06/14 04:09:07;;;;;;;5.93;4.00;;;14.90;99.90;;;;;;5119384;27;20189;-74
2021/06/14 04:11:34;;;;;;;6.27;3.83;;;15.00;99.90;;;;;;5122412;27;20663;-74
2021/06/14 04:14:01;;;;;;;6.23;4.23;;;14.90;99.90;;;;;;5127390;27;20221;-72
2021/06/14 04:16:27;;;;;;;11.27;4.50;;;14.90;99.90;;;;;;5116628;27;20561;-71
2021/06/14 04:18:54;;;;;;;8.40;4.57;;;14.80;99.90;;;;;;5110997;28;20590;-71
2021/06/14 04:21:22;;;;;;;8.90;4.57;;;14.70;99.90;;;;;;5111001;28;20271;-71
2021/06/14 04:23:49;;;;;;;6.33;4.03;;;14.50;99.90;;;;;;5114792;27;20197;-76
2021/06/14 04:26:15;;;;;;;5.90;3.57;;;14.40;99.90;;;;;;5126079;27;20202;-75
2021/06/14 04:28:42;;;;;;;6.40;4.30;;;14.40;99.90;;;;;;5112069;27;20234;-74
2021/06/14 04:31:09;;;;;;;7.73;4.00;;;14.40;99.90;;;;;;5111172;28;20624;-74
2021/06/14 04:33:36;;;;;;;5.43;4.07;;;14.50;99.90;;;;;;5110330;28;20769;-74
2021/06/14 04:36:03;;;;;;;5.90;4.07;;;14.60;99.90;;;;;;5110867;28;20216;-74
2021/06/14 04:38:31;;;;;;;8.47;4.40;;;14.60;99.90;;;;;;5125328;27;20198;-74
2021/06/14 04:40:58;;;;;;;4.93;4.17;;;14.60;99.90;;;;;;5131439;27;20205;-74
2021/06/14 04:43:24;;;;;;;5.43;4.13;;;14.70;99.90;;;;;;5131600;27;20217;-71
2021/06/14 04:45:51;;;;;;;4.97;4.00;;;14.70;99.90;;;;;;5131321;27;20251;-72
2021/06/14 04:48:18;;;;;;;4.73;3.63;;;14.70;99.90;;;;;;5131263;27;20535;-72
2021/06/14 04:50:45;;;;;;;5.00;3.33;;;14.80;99.90;;;;;;5130831;27;20202;-72
2021/06/14 04:53:12;;;;;;;5.17;3.77;;;14.70;99.90;;;;;;5131111;27;20229;-72
2021/06/14 04:55:40;;;;;;;5.53;4.33;;;14.60;99.90;;;;;;5129652;27;20329;-72
2021/06/14 04:58:09;;;;;;;6.97;4.27;;;14.70;99.90;;;;;;5121031;27;20199;-72
2021/06/14 05:00:36;;;;;;;6.70;4.00;;;14.70;99.90;;;;;;5121418;27;20194;-73
2021/06/14 05:03:03;;;;;;;8.53;3.83;;;14.80;99.90;;;;;;5127684;27;20198;-73
2021/06/14 05:05:29;;;;;;;6.50;4.33;;;14.90;99.90;;;;;;5129449;27;20721;-73
2021/06/14 05:07:57;;;;;;;6.47;4.50;;;14.90;99.90;;;;;;5130348;27;20198;-73
2021/06/14 05:10:24;;;;;;;6.40;4.27;;;15.00;99.90;;;;;;5128739;27;20218;-73
2021/06/14 05:12:52;;;;;;;5.70;3.47;;;15.10;99.90;;;;;;5129728;27;20257;-73
2021/06/14 05:15:18;;;;;;;6.90;4.03;;;15.20;99.90;;;;;;5129987;27;20198;-73
2021/06/14 05:17:46;;;;;;;4.43;3.30;;;15.30;99.90;;;;;;5129403;27;20205;-73
2021/06/14 05:20:13;;;;;;;4.33;3.80;;;15.30;99.90;;;;;;5126033;27;20614;-73
2021/06/14 05:22:40;;;;;;;4.27;3.87;;;15.50;99.90;;;;;;5125874;27;20247;-73
2021/06/14 05:25:07;;;;;;;5.10;3.67;;;15.50;99.90;;;;;;5128047;27;20221;-73
2021/06/14 05:27:34;;;;;;;4.90;3.70;;;15.60;99.90;;;;;;5128209;27;20551;-73
2021/06/14 05:30:02;;;;;;;6.20;3.70;;;15.60;99.90;;;;;;5126213;27;20197;-73
2021/06/14 05:32:29;;;;;;;6.03;3.93;;;15.70;99.90;;;;;;5125244;27;20255;-73
2021/06/14 05:34:55;;;;;;;6.77;4.30;;;15.70;99.90;;;;;;5126760;27;20260;-73
2021/06/14 05:37:22;;;;;;;6.47;4.30;;;15.70;99.90;;;;;;5126584;27;20277;-73
2021/06/14 05:39:49;;;;;;;8.53;3.93;;;15.80;99.90;;;;;;5118351;27;20225;-73
2021/06/14 05:42:15;;;;;;;6.47;4.37;;;15.70;99.90;;;;;;5125326;27;20664;-73
2021/06/14 05:44:42;;;;;;;10.00;6.77;;;15.70;99.90;;;;;;5128080;27;20229;-73
2021/06/14 05:47:10;;;;;;;6.97;4.80;;;15.70;99.90;;;;;;5126371;27;20198;-73
2021/06/14 05:49:36;;;;;;;6.47;4.60;;;15.70;99.90;;;;;;5126563;27;20278;-73
2021/06/14 05:52:04;;;;;;;6.70;4.87;;;15.70;99.90;;;;;;5126768;27;20937;-73
2021/06/14 05:54:30;;;;;;;5.87;3.83;;;15.70;99.90;;;;;;5128442;27;20356;-73
2021/06/14 05:56:57;;;;;;;7.20;3.93;;;15.80;99.90;;;;;;5127784;27;20671;-74
2021/06/14 05:59:24;;;;;;;6.40;4.03;;;15.90;99.90;;;;;;5127661;27;20238;-73
2021/06/14 06:01:51;;;;;;;6.03;3.87;;;16.00;99.90;;;;;;5128176;27;20672;-73
2021/06/14 06:04:20;;;;;;;4.97;3.93;;;16.10;99.90;;;;;;5127911;27;20264;-73
2021/06/14 06:06:47;;;;;;;10.20;4.53;;;16.10;99.90;;;;;;5125295;27;20203;-73
2021/06/14 06:09:14;;;;;;;5.30;4.80;;;16.20;99.90;;;;;;5127972;27;20537;-73
2021/06/14 06:11:40;;;;;;;6.53;4.40;;;16.20;99.90;;;;;;5122297;27;20206;-73
2021/06/14 06:14:07;;;;;;;6.57;4.50;;;16.30;99.90;;;;;;5120249;27;20687;-73
2021/06/14 06:16:33;;;;;;;6.77;3.80;;;16.30;99.90;;;;;;5125304;27;20232;-72
2021/06/14 06:19:00;;;;;;;7.43;4.33;;;16.40;99.90;;;;;;5128725;27;20198;-73
2021/06/14 06:21:28;;;;;;;8.87;3.80;;;16.40;99.90;;;;;;5128652;27;20198;-73
2021/06/14 06:23:55;;;;;;;6.60;4.00;;;16.40;99.90;;;;;;5129484;27;20627;-73
2021/06/14 06:26:21;;;;;;;8.53;4.43;;;16.50;99.90;;;;;;5129390;27;20205;-73
2021/06/14 06:28:48;;;;;;;6.50;4.27;;;16.60;99.90;;;;;;5129389;27;20206;-73
2021/06/14 06:31:15;;;;;;;9.30;4.20;;;16.60;99.90;;;;;;5129618;27;20216;-73
2021/06/14 06:33:42;;;;;;;8.73;4.20;;;16.60;99.90;;;;;;5129335;27;20260;-73
2021/06/14 06:36:09;;;;;;;5.40;4.13;;;16.70;99.90;;;;;;5129327;27;20250;-73
2021/06/14 06:38:37;;;;;;;7.17;4.90;;;16.70;99.90;;;;;;5129153;27;20209;-73
2021/06/14 06:41:04;;;;;;;6.03;4.60;;;16.70;99.90;;;;;;5128861;27;20660;-73
2021/06/14 06:43:31;;;;;;;6.93;4.33;;;16.70;99.90;;;;;;5129335;27;20209;-73
2021/06/14 06:45:57;;;;;;;6.80;5.10;;;16.80;99.90;;;;;;5129034;27;20278;-73
2021/06/14 06:48:24;;;;;;;7.60;4.90;;;16.80;99.90;;;;;;5128894;27;20230;-73
2021/06/14 06:50:51;;;;;;;5.93;4.97;;;16.80;99.90;;;;;;5118088;27;20275;-73
2021/06/14 06:53:18;;;;;;;7.03;4.57;;;16.80;99.90;;;;;;5108799;28;20214;-73
2021/06/14 06:55:46;;;;;;;5.83;4.40;;;16.90;99.90;;;;;;5108391;28;20224;-73
2021/06/14 06:58:13;;;;;;;6.33;3.93;;;16.90;99.90;;;;;;5108623;28;20202;-73
2021/06/14 07:00:40;;;;;;;5.00;4.23;;;16.90;99.90;;;;;;5110407;28;20201;-73
2021/06/14 07:03:08;;;;;;;7.60;4.20;;;17.00;99.90;;;;;;5112805;28;20217;-73
2021/06/14 07:05:36;;;;;;;6.30;4.13;;;17.00;99.90;;;;;;5112314;28;20230;-73
2021/06/14 07:08:03;;;;;;;5.77;4.13;;;17.00;99.90;;;;;;5112812;28;20229;-73
2021/06/14 07:10:30;;;;;;;5.67;4.37;;;17.00;99.90;;;;;;5112764;28;20255;-74
2021/06/14 07:12:58;;;;;;;8.23;4.73;;;17.00;99.90;;;;;;5112577;28;20225;-73
2021/06/14 07:15:24;;;;;;;9.03;4.83;;;17.10;99.90;;;;;;5112232;28;20679;-72
2021/06/14 07:17:51;;;;;;;4.97;4.00;;;17.10;99.90;;;;;;5124217;27;20205;-73
2021/06/14 07:20:18;;;;;;;5.53;4.33;;;17.10;99.90;;;;;;5132719;27;20278;-72
2021/06/14 07:22:45;;;;;;;5.30;4.17;;;17.20;99.90;;;;;;5133036;27;20209;-72
2021/06/14 07:25:13;;;;;;;8.87;4.67;;;17.30;99.90;;;;;;5132712;27;20250;-72
2021/06/14 07:27:41;;;;;;;6.00;4.23;;;17.30;99.90;;;;;;5133050;27;20250;-73
2021/06/14 07:30:11;;;;;;;6.67;4.33;;;17.30;99.90;;;;;;5132497;27;20230;-73
2021/06/14 07:32:38;;;;;;;5.20;3.87;;;17.40;99.90;;;;;;5132487;27;20768;-73
2021/06/14 07:35:06;;;;;;;6.53;4.33;;;17.40;99.90;;;;;;5132575;27;20290;-72
2021/06/14 07:37:32;;;;;;;8.27;3.43;;;17.40;99.90;;;;;;5132867;27;20228;-72
2021/06/14 07:39:59;;;;;;;4.50;3.37;;;17.40;99.90;;;;;;5132698;27;20250;-73
2021/06/14 07:42:27;;;;;;;4.80;3.63;;;17.50;99.90;;;;;;5132698;27;20226;-73
2021/06/14 07:44:54;;;;;;;4.07;3.47;;;17.50;99.90;;;;;;5131116;27;20225;-73
2021/06/14 07:47:22;;;;;;;4.30;3.50;;;17.50;99.90;;;;;;5131844;27;20212;-73
2021/06/14 07:49:49;;;;;;;5.87;3.20;;;17.60;99.90;;;;;;5131199;27;20234;-72
2021/06/14 07:52:15;;;;;;;5.93;3.30;;;17.70;99.90;;;;;;5130956;27;20197;-73
2021/06/14 07:54:42;;;;;;;4.37;3.97;;;17.70;99.90;;;;;;5116495;27;20310;-74
2021/06/14 07:57:09;;;;;;;7.83;3.43;;;17.70;99.90;;;;;;5116529;27;20198;-73
2021/06/14 07:59:35;;;;;;;4.60;3.07;;;17.90;99.90;;;;;;5127290;27;20201;-73
2021/06/14 08:02:02;;;;;;;3.97;3.63;;;17.90;99.90;;;;;;5131087;27;20205;-73
2021/06/14 08:04:30;;;;;;;7.10;3.33;;;18.00;99.90;;;;;;5130616;27;20229;-72
2021/06/14 08:06:57;;;;;;;4.90;3.20;;;18.00;99.90;;;;;;5130649;27;20282;-72
2021/06/14 08:09:28;;;;;;;5.63;3.30;;;18.00;99.90;;;;;;5130920;27;20233;-72
2021/06/14 08:11:55;;;;;;;9.37;3.73;;;18.10;99.90;;;;;;5130103;27;20198;-72
2021/06/14 08:14:22;;;;;;;4.07;3.20;;;18.10;99.90;;;;;;5127776;27;20270;-72
2021/06/14 08:16:49;;;;;;;4.80;3.27;;;18.10;99.90;;;;;;5130342;27;20209;-72
2021/06/14 08:19:18;;;;;;;4.33;3.00;;;18.10;99.90;;;;;;5130403;27;20222;-72
2021/06/14 08:22:05;;;;;;;3.50;2.67;;;18.20;99.90;;;;;;5130280;27;20886;-72
2021/06/14 08:27:16;;;;;;;4.93;3.80;;;18.40;99.90;;;;;;5130754;27;20200;-72
2021/06/14 08:29:43;;;;;;;3.40;3.10;;;18.50;99.80;;;;;;5130431;27;20266;-73
2021/06/14 08:32:10;;;;;;;4.03;3.13;;;18.60;99.10;;;;;;5130914;27;20201;-72
2021/06/14 08:34:36;;;;;;;3.40;2.70;;;18.70;98.80;;;;;;5130261;27;20235;-73
2021/06/14 08:37:04;;;;;;;3.60;2.80;;;18.70;98.60;;;;;;5130580;27;20254;-73
2021/06/14 08:39:31;;;;;;;4.67;3.27;;;18.80;98.90;;;;;;5130427;27;20201;-72
2021/06/14 08:42:01;;;;;;;4.80;2.70;;;18.90;98.60;;;;;;5126986;27;20870;-73
2021/06/14 08:44:28;;;;;;;12.23;3.67;;;18.80;98.70;;;;;;5129682;27;20308;-73
2021/06/14 08:46:57;;;;;;;3.87;2.90;;;18.90;98.30;;;;;;5129649;27;20532;-73
2021/06/14 08:49:25;;;;;;;5.57;3.00;;;18.90;98.40;;;;;;5127726;27;20950;-74
2021/06/14 08:51:52;;;;;;;7.43;3.20;;;18.90;98.30;;;;;;5129939;27;20212;-73
2021/06/14 08:54:20;;;;;;;5.60;3.10;;;18.90;98.30;;;;;;5130038;27;20213;-73
2021/06/14 08:56:47;;;;;;;4.50;2.80;;;18.90;98.90;;;;;;5129953;27;20229;-73
2021/06/14 08:59:14;;;;;;;5.40;3.20;;;18.90;98.60;;;;;;5129914;27;20251;-73
2021/06/14 09:01:40;;;;;;;7.23;3.53;;;19.00;99.10;;;;;;5129896;27;20193;-73
2021/06/14 09:04:07;;;;;;;5.63;3.10;;;19.20;98.70;;;;;;5129747;27;20282;-73
2021/06/14 09:06:33;;;;;;;3.97;3.20;;;19.30;98.70;;;;;;5129595;27;20190;-73
2021/06/14 09:09:04;;;;;;;4.77;3.13;;;19.30;98.60;;;;;;5129805;27;20216;-73
2021/06/14 09:11:33;;;;;;;4.07;2.37;;;19.40;98.70;;;;;;5129756;27;20186;-73
2021/06/14 09:14:01;;;;;;;4.17;2.73;;;19.40;98.10;;;;;;5129572;27;20213;-73
2021/06/14 09:16:31;;;;;;;2.70;2.50;;;19.30;97.60;;;;;;5129718;27;20284;-73
2021/06/14 09:18:58;;;;;;;4.33;3.20;;;19.40;97.50;;;;;;5129173;27;20240;-73
2021/06/14 09:21:28;;;;;;;4.47;3.00;;;19.40;97.60;;;;;;5129712;27;20225;-73
2021/06/14 09:23:57;;;;;;;6.13;3.00;;;19.50;97.70;;;;;;5128494;27;20205;-73
2021/06/14 09:26:26;;;;;;;3.03;2.60;;;19.80;97.20;;;;;;5124382;27;20251;-73
2021/06/14 09:28:57;;;;;;;3.20;2.70;;;19.70;97.20;;;;;;5129216;27;20206;-73
2021/06/14 09:31:26;;;;;;;3.37;2.70;;;19.70;97.10;;;;;;5126719;27;20182;-73
2021/06/14 09:33:53;;;;;;;4.13;2.80;;;19.80;97.10;;;;;;5129039;27;20205;-73
2021/06/14 09:36:22;;;;;;;3.87;2.50;;;19.90;97.40;;;;;;5128935;27;20205;-73
2021/06/14 09:38:49;;;;;;;3.30;2.43;;;19.90;96.70;;;;;;5124394;27;20667;-76
2021/06/14 09:41:17;;;;;;;2.93;2.63;;;20.00;96.80;;;;;;5120566;27;20539;-74
2021/06/14 09:43:46;;;;;;;6.00;2.70;;;20.20;96.50;;;;;;5120878;27;20650;-75
2021/06/14 09:46:28;;;;;;;3.33;2.53;;;20.40;95.90;;;;;;5125876;27;20216;-74
2021/06/14 09:48:57;;;;;;;6.20;5.47;;;20.30;95.90;;;;;;5128962;27;20276;-74
2021/06/14 09:51:25;;;;;;;5.10;3.23;;;20.40;96.60;;;;;;5128829;27;20194;-73
2021/06/14 09:53:54;;;;;;;2.70;2.40;;;20.60;95.80;;;;;;5128869;27;20263;-73
2021/06/14 09:56:23;;;;;;;3.53;2.50;;;20.70;95.70;;;;;;5123556;27;20221;-74
2021/06/14 09:58:52;;;;;;;3.40;2.43;;;20.80;95.70;;;;;;5128907;27;20205;-73
2021/06/14 10:01:28;;;;;;;4.87;3.00;;;20.80;95.50;;;;;;5125738;27;20197;-73
2021/06/14 10:03:57;;;;;;;3.47;2.60;;;20.80;96.10;;;;;;5128275;27;20699;-73
2021/06/14 10:06:31;;;;;;;3.20;2.40;;;20.70;95.60;;;;;;5128810;27;20249;-74
2021/06/14 10:08:58;;;;;;;5.67;2.90;;;20.70;95.80;;;;;;5125552;27;20671;-74
2021/06/14 10:11:33;;;;;;;3.33;2.40;;;20.70;95.20;;;;;;5127217;27;20198;-74
2021/06/14 10:14:07;;;;;;;8.13;2.57;;;20.80;96.40;;;;;;5126012;27;20194;-73
2021/06/14 10:16:37;;;;;;;3.20;2.47;;;21.00;95.80;;;;;;5129071;27;20192;-73
2021/06/14 10:19:07;;;;;;;3.83;2.83;;;21.00;95.50;;;;;;5129756;27;20264;-74
2021/06/14 10:21:36;;;;;;;3.40;3.07;;;21.10;94.80;;;;;;5128434;27;20193;-73
2021/06/14 10:24:06;;;;;;;2.30;2.07;;;21.30;94.60;;;;;;5128890;27;20193;-74
2021/06/14 10:26:34;;;;;;;4.13;2.40;;;21.30;94.60;;;;;;5128800;27;20190;-74
2021/06/14 10:29:03;;;;;;;4.13;2.67;;;21.30;94.10;;;;;;5124549;27;20210;-74
2021/06/14 10:31:30;;;;;;;4.30;2.50;;;21.40;94.10;;;;;;5126800;27;20559;-74
2021/06/14 10:33:58;;;;;;;4.63;2.43;;;21.40;94.00;;;;;;5128149;27;20597;-74
2021/06/14 10:36:26;;;;;;;5.43;2.43;;;21.40;93.60;;;;;;5128427;27;20286;-74
2021/06/14 10:38:54;;;;;;;3.67;2.40;;;21.50;93.70;;;;;;5128611;27;20253;-74
2021/06/14 10:41:23;;;;;;;5.63;2.83;;;21.60;93.90;;;;;;5120027;27;20197;-74
2021/06/14 10:43:50;;;;;;;4.10;2.30;;;21.70;93.70;;;;;;5128508;27;20226;-75
2021/06/14 10:46:22;;;;;;;2.20;2.07;;;21.80;93.50;;;;;;5128295;27;20720;-74
2021/06/14 10:48:54;;;;;;;3.87;2.90;;;21.90;93.50;;;;;;5125869;27;20230;-75
2021/06/14 10:51:22;;;;;;;5.00;2.67;;;22.20;93.50;;;;;;5128418;27;20196;-75
2021/06/14 10:53:51;;;;;;;3.43;2.37;;;22.30;92.80;;;;;;5128379;27;20206;-75
2021/06/14 10:56:19;;;;;;;3.33;2.20;;;22.30;92.10;;;;;;5128658;27;20278;-75
2021/06/14 10:58:56;;;;;;;3.83;2.30;;;22.40;92.50;;;;;;5128543;27;20250;-75
2021/06/14 11:01:30;;;;;;;4.32;2.33;;;22.50;92.00;;;;;;5128518;28;20276;-75
2021/06/14 11:03:57;;;;;;;3.58;2.30;;;22.60;91.50;;;;;;5122468;28;20237;-75
2021/06/14 11:06:26;;;;;;;3.53;2.25;;;22.80;91.50;;;;;;5122252;28;20205;-75
2021/06/14 11:09:01;;;;;;;2.30;2.10;;;23.00;92.10;;;;;;5128125;28;20205;-75
2021/06/14 11:11:29;;;;;;;2.90;2.25;;;23.20;91.60;;;;;;5127924;28;20201;-75
2021/06/14 11:13:56;;;;;;;5.03;2.60;;;23.40;91.40;;;;;;5124472;28;20197;-75
2021/06/14 11:16:23;;;;;;;2.25;2.00;;;23.50;90.80;;;;;;5125025;28;20256;-75
2021/06/14 11:19:01;;;;;;;3.05;2.40;;;23.60;90.80;;;;;;5127275;28;20308;-75
2021/06/14 11:21:29;;;;;;;4.80;2.20;;;23.80;90.30;;;;;;5119579;28;20213;-75
2021/06/14 11:24:05;;;;;;;2.58;2.38;;;23.80;90.00;;;;;;5127888;27;20570;-74
2021/06/14 11:26:32;;;;;;;2.55;2.20;;;23.90;90.00;;;;;;5125514;28;20240;-75
2021/06/14 11:29:09;;;;;;;2.28;1.92;;;23.90;89.40;;;;;;5128216;27;20202;-74
2021/06/14 11:31:36;;;;;;;2.30;2.08;;;23.90;90.00;;;;;;5125881;28;20238;-75
2021/06/14 11:34:06;;;;;;;2.58;1.98;;;23.80;88.70;;;;;;5128028;28;20230;-75
2021/06/14 11:36:35;;;;;;;2.38;2.00;;;23.80;88.60;;;;;;5127357;28;20221;-75
2021/06/14 11:39:14;;;;;;;2.35;1.92;;;23.70;88.60;;;;;;5127562;28;20595;-75
2021/06/14 11:41:40;;;;;;;2.67;2.15;;;23.60;87.50;;;;;;5126925;28;20186;-75
2021/06/14 11:44:21;;;;;;;3.53;1.98;;;23.60;87.90;;;;;;5127607;28;20621;-75
2021/06/14 11:46:50;;;;;;;4.13;1.92;;;23.60;88.10;;;;;;5127589;27;20213;-74
2021/06/14 11:49:16;;;;;;;2.80;2.00;;;23.50;88.50;;;;;;5131519;27;20246;-75
2021/06/14 11:51:44;;;;;;;3.22;1.90;;;23.50;88.00;;;;;;5131499;27;20205;-75
2021/06/14 11:54:16;;;;;;;3.35;2.13;;;23.50;89.10;;;;;;5131548;27;20562;-75
2021/06/14 11:56:43;;;;;;;2.20;2.00;;;23.50;87.80;;;;;;5130993;27;20946;-75
2021/06/14 11:59:10;;;;;;;4.18;1.92;;;23.50;88.10;;;;;;5128611;27;20683;-74
2021/06/14 12:01:39;;;;;;;2.63;1.90;;;23.40;88.50;;;;;;5130965;27;20225;-75
2021/06/14 12:04:07;;;;;;;3.05;2.00;;;23.40;87.70;;;;;;5130450;27;20217;-75
2021/06/14 12:06:46;;;;;;;2.47;2.20;;;23.40;88.70;;;;;;5126436;27;20198;-75
2021/06/14 12:09:14;;;;;;;5.20;2.08;;;23.40;88.00;;;;;;5121661;27;20205;-75
2021/06/14 12:11:41;;;;;;;2.13;1.92;;;23.30;88.70;;;;;;5126075;27;20202;-75
2021/06/14 12:14:13;;;;;;;3.25;2.42;;;23.30;90.00;;;;;;5124368;27;20201;-75
2021/06/14 12:16:40;;;;;;;2.70;1.90;;;23.30;88.80;;;;;;5127296;27;20265;-75
2021/06/14 12:19:08;;;;;;;3.38;1.90;;;23.30;88.90;;;;;;5130582;27;20225;-75
2021/06/14 12:21:34;;;;;;;3.22;1.70;;;23.30;89.70;;;;;;5131048;27;20201;-75
2021/06/14 12:24:03;;;;;;;2.08;1.88;;;23.40;88.80;;;;;;5131171;27;20193;-75
2021/06/14 12:26:36;;;;;;;4.80;1.90;;;23.30;89.00;;;;;;5130729;27;20209;-76
2021/06/14 12:29:03;;;;;;;2.63;2.03;;;23.30;88.80;;;;;;5130453;27;20263;-75
2021/06/14 12:31:30;;;;;;;2.88;2.10;;;23.40;86.00;;;;;;5131098;27;20206;-75
2021/06/14 12:33:56;;;;;;;1.92;1.70;;;23.50;87.00;;;;;;5130963;27;20205;-75
2021/06/14 12:36:25;;;;;;;1.92;1.83;;;23.60;88.20;;;;;;5130562;27;20264;-75
2021/06/14 12:38:53;;;;;;;3.15;1.67;;;23.50;88.30;;;;;;5131378;27;20209;-75
2021/06/14 12:41:21;;;;;;;2.05;1.85;;;23.60;88.60;;;;;;5131617;27;20209;-75
2021/06/14 12:43:49;;;;;;;2.72;1.80;;;23.50;88.40;;;;;;5131413;27;20225;-76
2021/06/14 12:46:15;;;;;;;2.45;1.90;;;23.50;87.90;;;;;;5131618;27;20205;-74
2021/06/14 12:48:46;;;;;;;2.28;2.00;;;23.50;88.20;;;;;;5131146;27;20201;-75
2021/06/14 12:51:12;;;;;;;4.80;2.10;;;23.50;90.00;;;;;;5131566;27;20198;-75
2021/06/14 12:53:39;;;;;;;4.32;2.03;;;23.50;90.00;;;;;;5131278;27;20242;-75